sensor_id;sensor_type;location;lat;lon;timestamp;temperature;humidity
4828;DHT22;2428;48.732;9.148;2023-04-03T00:00:12;4.70;99.90
4828;DHT22;2428;48.732;9.148;2023-04-03T00:02:37;4.70;99.90
4828;DHT22;2428;48.732;9.148;2023-04-03T00:05:03;4.70;99.90
4828;DHT22;2428;48.732;9.148;2023-04-03T00:07:30;4.70;99.90
4828;DHT22;2428;48.732;9.148;2023-04-03T00:09:55;4.70;99.90
4828;DHT22;2428;48.732;9.148;2023-04-03T00:12:21;4.60;99.90
4828;DHT22;2428;48.732;9.148;2023-04-03T00:14:47;4.60;99.90
4828;DHT22;2428;48.732;9.148;2023-04-03T00:17:12;4.60;99.90
4828;DHT22;2428;48.732;9.148;2023-04-03T00:19:38;4.60;99.90
4828;DHT22;2428;48.732;9.148;2023-04-03T00:22:03;4.60;99.90
4828;DHT22;2428;48.732;9.148;2023-04-03T00:24:29;4.60;99.90
4828;DHT22;2428;48.732;9.148;2023-04-03T00:26:54;4.60;99.90
4828;DHT22;2428;48.732;9.148;2023-04-03T00:29:20;4.60;99.90
4828;DHT22;2428;48.732;9.148;2023-04-03T00:31:45;4.60;99.90
4828;DHT22;2428;48.732;9.148;2023-04-03T00:34:11;4.50;99.90
4828;DHT22;2428;48.732;9.148;2023-04-03T00:36:37;4.50;99.90
4828;DHT22;2428;48.732;9.148;2023-04-03T00:39:02;4.50;99.90
4828;DHT22;2428;48.732;9.148;2023-04-03T00:41:28;4.50;99.90
4828;DHT22;2428;48.732;9.148;2023-04-03T00:43:53;4.50;99.90
4828;DHT22;2428;48.732;9.148;2023-04-03T00:46:19;4.50;99.90
4828;DHT22;2428;48.732;9.148;2023-04-03T00:48:46;4.50;99.90
4828;DHT22;2428;48.732;9.148;2023-04-03T00:51:24;4.40;99.90
4828;DHT22;2428;48.732;9.148;2023-04-03T00:53:59;4.40;99.90
4828;DHT22;2428;48.732;9.148;2023-04-03T00:56:27;4.50;99.90
4828;DHT22;2428;48.732;9.148;2023-04-03T00:59:04;4.40;99.90
4828;DHT22;2428;48.732;9.148;2023-04-03T01:01:30;4.40;99.90
4828;DHT22;2428;48.732;9.148;2023-04-03T01:03:59;4.40;99.90
4828;DHT22;2428;48.732;9.148;2023-04-03T01:06:28;4.30;99.90
4828;DHT22;2428;48.732;9.148;2023-04-03T01:08:56;4.30;99.90
4828;DHT22;2428;48.732;9.148;2023-04-03T01:11:22;4.30;99.90
4828;DHT22;2428;48.732;9.148;2023-04-03T01:13:48;4.30;99.90
4828;DHT22;2428;48.732;9.148;2023-04-03T01:16:14;4.30;99.90
4828;DHT22;2428;48.732;9.148;2023-04-03T01:18:41;4.30;99.90
4828;DHT22;2428;48.732;9.148;2023-04-03T01:23:58;4.20;99.90
4828;DHT22;2428;48.732;9.148;2023-04-03T01:26:25;4.20;99.90
4828;DHT22;2428;48.732;9.148;2023-04-03T01:28:53;4.20;99.90
4828;DHT22;2428;48.732;9.148;2023-04-03T01:34:05;4.30;99.90
4828;DHT22;2428;48.732;9.148;2023-04-03T01:36:31;4.20;99.90
4828;DHT22;2428;48.732;9.148;2023-04-03T01:38:58;4.20;99.90
4828;DHT22;2428;48.732;9.148;2023-04-03T01:41:25;4.20;99.90
4828;DHT22;2428;48.732;9.148;2023-04-03T01:43:51;4.10;99.90
4828;DHT22;2428;48.732;9.148;2023-04-03T01:46:17;4.10;99.90
4828;DHT22;2428;48.732;9.148;2023-04-03T01:48:43;4.10;99.90
4828;DHT22;2428;48.732;9.148;2023-04-03T01:51:09;4.10;99.90
4828;DHT22;2428;48.732;9.148;2023-04-03T01:53:34;4.10;99.90
4828;DHT22;2428;48.732;9.148;2023-04-03T01:56:00;4.10;99.90
4828;DHT22;2428;48.732;9.148;2023-04-03T01:58:25;4.20;99.90
4828;DHT22;2428;48.732;9.148;2023-04-03T02:00:51;4.10;99.90
4828;DHT22;2428;48.732;9.148;2023-04-03T02:03:17;4.20;99.90
4828;DHT22;2428;48.732;9.148;2023-04-03T02:05:43;4.20;99.90
4828;DHT22;2428;48.732;9.148;2023-04-03T02:08:09;4.20;99.90
4828;DHT22;2428;48.732;9.148;2023-04-03T02:10:36;4.10;99.90
4828;DHT22;2428;48.732;9.148;2023-04-03T02:13:01;4.20;99.90
4828;DHT22;2428;48.732;9.148;2023-04-03T02:15:27;4.20;99.90
4828;DHT22;2428;48.732;9.148;2023-04-03T02:17:53;4.20;99.90
4828;DHT22;2428;48.732;9.148;2023-04-03T02:20:18;4.20;99.90
4828;DHT22;2428;48.732;9.148;2023-04-03T02:22:44;4.20;99.90
4828;DHT22;2428;48.732;9.148;2023-04-03T02:25:10;4.20;99.90
4828;DHT22;2428;48.732;9.148;2023-04-03T02:27:37;4.20;99.90
4828;DHT22;2428;48.732;9.148;2023-04-03T02:30:03;4.20;99.90
4828;DHT22;2428;48.732;9.148;2023-04-03T02:32:29;4.20;99.90
4828;DHT22;2428;48.732;9.148;2023-04-03T02:34:55;4.20;99.90
4828;DHT22;2428;48.732;9.148;2023-04-03T02:37:21;4.20;99.90
4828;DHT22;2428;48.732;9.148;2023-04-03T02:39:46;4.20;99.90
4828;DHT22;2428;48.732;9.148;2023-04-03T02:42:13;4.20;99.90
4828;DHT22;2428;48.732;9.148;2023-04-03T02:44:38;4.20;99.90
4828;DHT22;2428;48.732;9.148;2023-04-03T02:47:04;4.10;99.90
4828;DHT22;2428;48.732;9.148;2023-04-03T02:49:31;4.20;99.90
4828;DHT22;2428;48.732;9.148;2023-04-03T02:51:57;4.10;99.90
4828;DHT22;2428;48.732;9.148;2023-04-03T02:54:22;4.10;99.90
4828;DHT22;2428;48.732;9.148;2023-04-03T02:56:49;4.10;99.90
4828;DHT22;2428;48.732;9.148;2023-04-03T02:59:14;4.10;99.90
4828;DHT22;2428;48.732;9.148;2023-04-03T03:01:40;4.10;99.90
4828;DHT22;2428;48.732;9.148;2023-04-03T03:04:06;4.10;99.90
4828;DHT22;2428;48.732;9.148;2023-04-03T03:06:31;4.10;99.90
4828;DHT22;2428;48.732;9.148;2023-04-03T03:08:57;4.10;99.90
4828;DHT22;2428;48.732;9.148;2023-04-03T03:11:23;4.10;99.90
4828;DHT22;2428;48.732;9.148;2023-04-03T03:13:48;4.10;99.90
4828;DHT22;2428;48.732;9.148;2023-04-03T03:16:14;4.10;99.90
4828;DHT22;2428;48.732;9.148;2023-04-03T03:18:39;4.10;99.90
4828;DHT22;2428;48.732;9.148;2023-04-03T03:21:05;4.10;99.90
4828;DHT22;2428;48.732;9.148;2023-04-03T03:23:31;4.00;99.90
4828;DHT22;2428;48.732;9.148;2023-04-03T03:26:03;4.00;99.90
4828;DHT22;2428;48.732;9.148;2023-04-03T03:28:29;4.00;99.90
4828;DHT22;2428;48.732;9.148;2023-04-03T03:30:56;4.10;99.90
4828;DHT22;2428;48.732;9.148;2023-04-03T03:33:22;4.00;99.90
4828;DHT22;2428;48.732;9.148;2023-04-03T03:35:47;4.00;99.90
4828;DHT22;2428;48.732;9.148;2023-04-03T03:38:13;4.00;99.90
4828;DHT22;2428;48.732;9.148;2023-04-03T03:40:38;4.00;99.90
4828;DHT22;2428;48.732;9.148;2023-04-03T03:43:04;4.00;99.90
4828;DHT22;2428;48.732;9.148;2023-04-03T03:45:30;4.00;99.90
4828;DHT22;2428;48.732;9.148;2023-04-03T03:47:56;4.00;99.90
4828;DHT22;2428;48.732;9.148;2023-04-03T03:50:22;4.10;99.90
4828;DHT22;2428;48.732;9.148;2023-04-03T03:52:47;4.10;99.90
4828;DHT22;2428;48.732;9.148;2023-04-03T03:55:13;4.10;99.90
4828;DHT22;2428;48.732;9.148;2023-04-03T03:57:38;4.10;99.90
4828;DHT22;2428;48.732;9.148;2023-04-03T04:00:04;4.10;99.90
4828;DHT22;2428;48.732;9.148;2023-04-03T04:02:30;4.00;99.90
4828;DHT22;2428;48.732;9.148;2023-04-03T04:04:56;4.00;99.90
4828;DHT22;2428;48.732;9.148;2023-04-03T04:07:21;4.00;99.90
4828;DHT22;2428;48.732;9.148;2023-04-03T04:09:47;4.00;99.90
4828;DHT22;2428;48.732;9.148;2023-04-03T04:12:13;3.90;99.90
4828;DHT22;2428;48.732;9.148;2023-04-03T04:14:38;4.00;99.90
4828;DHT22;2428;48.732;9.148;2023-04-03T04:17:05;4.00;99.90
4828;DHT22;2428;48.732;9.148;2023-04-03T04:19:30;4.00;99.90
4828;DHT22;2428;48.732;9.148;2023-04-03T04:21:56;4.00;99.90
4828;DHT22;2428;48.732;9.148;2023-04-03T04:24:22;4.00;99.90
4828;DHT22;2428;48.732;9.148;2023-04-03T04:26:50;4.00;99.90
4828;DHT22;2428;48.732;9.148;2023-04-03T04:29:16;4.00;99.90
4828;DHT22;2428;48.732;9.148;2023-04-03T04:31:41;4.00;99.90
4828;DHT22;2428;48.732;9.148;2023-04-03T04:34:07;3.90;99.90
4828;DHT22;2428;48.732;9.148;2023-04-03T04:36:33;3.90;99.90
4828;DHT22;2428;48.732;9.148;2023-04-03T04:38:58;3.90;99.90
4828;DHT22;2428;48.732;9.148;2023-04-03T04:41:24;4.00;99.90
4828;DHT22;2428;48.732;9.148;2023-04-03T04:43:50;3.90;99.90
4828;DHT22;2428;48.732;9.148;2023-04-03T04:46:16;4.00;99.90
4828;DHT22;2428;48.732;9.148;2023-04-03T04:48:42;3.90;99.90
4828;DHT22;2428;48.732;9.148;2023-04-03T04:51:07;3.90;99.90
4828;DHT22;2428;48.732;9.148;2023-04-03T04:53:33;3.90;99.90
4828;DHT22;2428;48.732;9.148;2023-04-03T04:55:59;3.90;99.90
4828;DHT22;2428;48.732;9.148;2023-04-03T04:58:24;3.90;99.90
4828;DHT22;2428;48.732;9.148;2023-04-03T05:01:05;3.90;99.90
4828;DHT22;2428;48.732;9.148;2023-04-03T05:03:31;3.90;99.90
4828;DHT22;2428;48.732;9.148;2023-04-03T05:05:57;3.90;99.90
4828;DHT22;2428;48.732;9.148;2023-04-03T05:08:23;3.90;99.90
4828;DHT22;2428;48.732;9.148;2023-04-03T05:10:48;3.90;99.90
4828;DHT22;2428;48.732;9.148;2023-04-03T05:13:14;3.90;99.90
4828;DHT22;2428;48.732;9.148;2023-04-03T05:15:40;3.90;99.90
4828;DHT22;2428;48.732;9.148;2023-04-03T05:18:06;3.90;99.90
4828;DHT22;2428;48.732;9.148;2023-04-03T05:20:32;3.90;99.90
4828;DHT22;2428;48.732;9.148;2023-04-03T05:22:58;3.90;99.90
4828;DHT22;2428;48.732;9.148;2023-04-03T05:25:24;3.90;99.90
4828;DHT22;2428;48.732;9.148;2023-04-03T05:27:50;3.90;99.90
4828;DHT22;2428;48.732;9.148;2023-04-03T05:30:15;4.00;99.90
4828;DHT22;2428;48.732;9.148;2023-04-03T05:32:41;4.00;99.90
4828;DHT22;2428;48.732;9.148;2023-04-03T05:35:07;4.00;99.90
4828;DHT22;2428;48.732;9.148;2023-04-03T05:37:33;4.00;99.90
4828;DHT22;2428;48.732;9.148;2023-04-03T05:39:59;4.10;99.90
4828;DHT22;2428;48.732;9.148;2023-04-03T05:42:25;4.10;99.90
4828;DHT22;2428;48.732;9.148;2023-04-03T05:44:50;4.20;99.90
4828;DHT22;2428;48.732;9.148;2023-04-03T05:47:17;4.20;99.90
4828;DHT22;2428;48.732;9.148;2023-04-03T05:49:43;4.20;99.90
4828;DHT22;2428;48.732;9.148;2023-04-03T05:52:35;4.30;99.90
4828;DHT22;2428;48.732;9.148;2023-04-03T05:55:02;4.20;99.90
4828;DHT22;2428;48.732;9.148;2023-04-03T05:57:27;4.10;99.90
4828;DHT22;2428;48.732;9.148;2023-04-03T05:59:53;4.00;99.90
4828;DHT22;2428;48.732;9.148;2023-04-03T06:02:21;4.00;99.90
4828;DHT22;2428;48.732;9.148;2023-04-03T06:04:46;4.00;99.90
4828;DHT22;2428;48.732;9.148;2023-04-03T06:07:18;4.00;99.90
4828;DHT22;2428;48.732;9.148;2023-04-03T06:09:46;4.00;99.90
4828;DHT22;2428;48.732;9.148;2023-04-03T06:12:12;4.00;99.90
4828;DHT22;2428;48.732;9.148;2023-04-03T06:14:38;3.90;99.90
4828;DHT22;2428;48.732;9.148;2023-04-03T06:17:03;3.90;99.90
4828;DHT22;2428;48.732;9.148;2023-04-03T06:19:30;4.00;99.90
4828;DHT22;2428;48.732;9.148;2023-04-03T06:21:55;4.00;99.90
4828;DHT22;2428;48.732;9.148;2023-04-03T06:24:21;4.00;99.90
4828;DHT22;2428;48.732;9.148;2023-04-03T06:26:49;4.10;99.90
4828;DHT22;2428;48.732;9.148;2023-04-03T06:29:16;4.20;99.90
4828;DHT22;2428;48.732;9.148;2023-04-03T06:31:42;4.20;99.90
4828;DHT22;2428;48.732;9.148;2023-04-03T06:34:08;4.30;99.90
4828;DHT22;2428;48.732;9.148;2023-04-03T06:36:33;4.30;99.90
4828;DHT22;2428;48.732;9.148;2023-04-03T06:39:00;4.30;99.90
4828;DHT22;2428;48.732;9.148;2023-04-03T06:41:25;4.40;99.90
4828;DHT22;2428;48.732;9.148;2023-04-03T06:43:52;4.50;99.90
4828;DHT22;2428;48.732;9.148;2023-04-03T06:46:20;4.50;99.90
4828;DHT22;2428;48.732;9.148;2023-04-03T06:48:47;4.50;99.90
4828;DHT22;2428;48.732;9.148;2023-04-03T06:51:18;4.50;99.90
4828;DHT22;2428;48.732;9.148;2023-04-03T06:53:45;4.50;99.90
4828;DHT22;2428;48.732;9.148;2023-04-03T06:56:11;4.50;99.90
4828;DHT22;2428;48.732;9.148;2023-04-03T06:58:36;4.50;99.90
4828;DHT22;2428;48.732;9.148;2023-04-03T07:01:02;4.50;99.90
4828;DHT22;2428;48.732;9.148;2023-04-03T07:03:28;4.50;99.90
4828;DHT22;2428;48.732;9.148;2023-04-03T07:05:53;4.50;99.90
4828;DHT22;2428;48.732;9.148;2023-04-03T07:08:19;4.40;99.90
4828;DHT22;2428;48.732;9.148;2023-04-03T07:10:45;4.40;99.90
4828;DHT22;2428;48.732;9.148;2023-04-03T07:13:10;4.40;99.90
4828;DHT22;2428;48.732;9.148;2023-04-03T07:15:36;4.30;99.90
4828;DHT22;2428;48.732;9.148;2023-04-03T07:18:02;4.40;99.90
4828;DHT22;2428;48.732;9.148;2023-04-03T07:20:28;4.50;99.90
4828;DHT22;2428;48.732;9.148;2023-04-03T07:22:53;4.50;99.90
4828;DHT22;2428;48.732;9.148;2023-04-03T07:25:19;4.60;99.90
4828;DHT22;2428;48.732;9.148;2023-04-03T07:27:45;4.60;99.90
4828;DHT22;2428;48.732;9.148;2023-04-03T07:30:11;4.70;99.90
4828;DHT22;2428;48.732;9.148;2023-04-03T07:32:37;4.80;99.90
4828;DHT22;2428;48.732;9.148;2023-04-03T07:35:03;4.90;99.90
4828;DHT22;2428;48.732;9.148;2023-04-03T07:37:28;4.90;99.90
4828;DHT22;2428;48.732;9.148;2023-04-03T07:39:54;4.80;99.90
4828;DHT22;2428;48.732;9.148;2023-04-03T07:42:20;4.80;99.90
4828;DHT22;2428;48.732;9.148;2023-04-03T07:44:46;4.90;99.90
4828;DHT22;2428;48.732;9.148;2023-04-03T07:47:12;5.00;99.90
4828;DHT22;2428;48.732;9.148;2023-04-03T07:49:39;5.00;99.90
4828;DHT22;2428;48.732;9.148;2023-04-03T07:52:06;5.00;99.90
4828;DHT22;2428;48.732;9.148;2023-04-03T07:54:33;5.00;99.90
4828;DHT22;2428;48.732;9.148;2023-04-03T07:56:59;4.90;99.90
4828;DHT22;2428;48.732;9.148;2023-04-03T07:59:25;4.90;99.90
4828;DHT22;2428;48.732;9.148;2023-04-03T08:01:51;4.90;99.90
4828;DHT22;2428;48.732;9.148;2023-04-03T08:04:16;5.00;99.90
4828;DHT22;2428;48.732;9.148;2023-04-03T08:06:42;5.10;99.90
4828;DHT22;2428;48.732;9.148;2023-04-03T08:09:08;5.20;99.90
4828;DHT22;2428;48.732;9.148;2023-04-03T08:11:33;5.30;99.90
4828;DHT22;2428;48.732;9.148;2023-04-03T08:13:59;5.30;99.90
4828;DHT22;2428;48.732;9.148;2023-04-03T08:16:25;5.40;99.90
4828;DHT22;2428;48.732;9.148;2023-04-03T08:18:52;5.50;99.90
4828;DHT22;2428;48.732;9.148;2023-04-03T08:21:18;5.50;99.90
4828;DHT22;2428;48.732;9.148;2023-04-03T08:23:43;5.40;99.90
4828;DHT22;2428;48.732;9.148;2023-04-03T08:26:11;5.40;99.90
4828;DHT22;2428;48.732;9.148;2023-04-03T08:28:38;5.40;99.90
4828;DHT22;2428;48.732;9.148;2023-04-03T08:31:09;5.50;99.90
4828;DHT22;2428;48.732;9.148;2023-04-03T08:33:36;5.50;99.90
4828;DHT22;2428;48.732;9.148;2023-04-03T08:36:04;5.50;99.90
4828;DHT22;2428;48.732;9.148;2023-04-03T08:38:30;5.50;99.90
4828;DHT22;2428;48.732;9.148;2023-04-03T08:44:08;5.60;99.90
4828;DHT22;2428;48.732;9.148;2023-04-03T08:49:46;5.70;99.90
4828;DHT22;2428;48.732;9.148;2023-04-03T08:52:18;5.70;99.90
4828;DHT22;2428;48.732;9.148;2023-04-03T08:54:58;5.80;99.90
4828;DHT22;2428;48.732;9.148;2023-04-03T08:57:41;5.80;99.90
4828;DHT22;2428;48.732;9.148;2023-04-03T09:00:21;6.00;99.90
4828;DHT22;2428;48.732;9.148;2023-04-03T09:02:55;6.10;99.90
4828;DHT22;2428;48.732;9.148;2023-04-03T09:05:46;6.10;99.90
4828;DHT22;2428;48.732;9.148;2023-04-03T09:10:49;6.40;99.90
4828;DHT22;2428;48.732;9.148;2023-04-03T09:13:53;6.40;99.90
4828;DHT22;2428;48.732;9.148;2023-04-03T09:16:32;6.40;99.90
4828;DHT22;2428;48.732;9.148;2023-04-03T09:22:07;6.60;99.90
4828;DHT22;2428;48.732;9.148;2023-04-03T09:24:36;6.50;99.90
4828;DHT22;2428;48.732;9.148;2023-04-03T09:27:09;6.50;99.90
4828;DHT22;2428;48.732;9.148;2023-04-03T09:29:39;6.70;99.90
4828;DHT22;2428;48.732;9.148;2023-04-03T09:32:26;6.80;99.90
4828;DHT22;2428;48.732;9.148;2023-04-03T09:34:54;6.70;99.90
4828;DHT22;2428;48.732;9.148;2023-04-03T09:37:42;6.70;99.90
4828;DHT22;2428;48.732;9.148;2023-04-03T09:40:29;6.70;99.90
4828;DHT22;2428;48.732;9.148;2023-04-03T09:43:00;6.70;99.90
4828;DHT22;2428;48.732;9.148;2023-04-03T09:45:32;6.60;99.90
4828;DHT22;2428;48.732;9.148;2023-04-03T09:48:06;6.30;99.90
4828;DHT22;2428;48.732;9.148;2023-04-03T09:50:33;6.20;99.90
4828;DHT22;2428;48.732;9.148;2023-04-03T09:53:05;6.40;99.90
4828;DHT22;2428;48.732;9.148;2023-04-03T09:55:32;6.50;99.90
4828;DHT22;2428;48.732;9.148;2023-04-03T09:58:03;6.50;99.90
4828;DHT22;2428;48.732;9.148;2023-04-03T10:00:37;6.40;99.90
4828;DHT22;2428;48.732;9.148;2023-04-03T10:03:03;6.40;99.90
4828;DHT22;2428;48.732;9.148;2023-04-03T10:05:36;6.30;99.90
4828;DHT22;2428;48.732;9.148;2023-04-03T10:08:11;6.20;99.90
4828;DHT22;2428;48.732;9.148;2023-04-03T10:10:37;6.10;99.90
4828;DHT22;2428;48.732;9.148;2023-04-03T10:13:25;6.10;99.90
4828;DHT22;2428;48.732;9.148;2023-04-03T10:21:40;6.20;99.90
4828;DHT22;2428;48.732;9.148;2023-04-03T10:32:25;5.70;99.90
4828;DHT22;2428;48.732;9.148;2023-04-03T10:41:00;5.90;99.90
4828;DHT22;2428;48.732;9.148;2023-04-03T10:46:03;5.90;99.90
4828;DHT22;2428;48.732;9.148;2023-04-03T10:48:55;5.90;99.90
4828;DHT22;2428;48.732;9.148;2023-04-03T10:53:52;5.80;99.90
4828;DHT22;2428;48.732;9.148;2023-04-03T10:59:24;5.70;99.90
4828;DHT22;2428;48.732;9.148;2023-04-03T11:01:55;5.70;99.90
4828;DHT22;2428;48.732;9.148;2023-04-03T11:04:24;5.90;99.90
4828;DHT22;2428;48.732;9.148;2023-04-03T11:07:02;5.90;99.90
4828;DHT22;2428;48.732;9.148;2023-04-03T11:09:37;5.80;99.90
4828;DHT22;2428;48.732;9.148;2023-04-03T11:12:12;5.80;99.90
4828;DHT22;2428;48.732;9.148;2023-04-03T11:14:40;5.70;99.90
4828;DHT22;2428;48.732;9.148;2023-04-03T11:22:42;5.80;99.90
4828;DHT22;2428;48.732;9.148;2023-04-03T11:33:23;5.80;99.90
4828;DHT22;2428;48.732;9.148;2023-04-03T11:35:57;5.80;99.90
4828;DHT22;2428;48.732;9.148;2023-04-03T11:38:28;5.80;99.90
4828;DHT22;2428;48.732;9.148;2023-04-03T11:40:56;5.80;99.90
4828;DHT22;2428;48.732;9.148;2023-04-03T11:43:25;5.80;99.90
4828;DHT22;2428;48.732;9.148;2023-04-03T11:46:09;5.80;99.90
4828;DHT22;2428;48.732;9.148;2023-04-03T11:53:53;6.00;99.90
4828;DHT22;2428;48.732;9.148;2023-04-03T12:04:13;6.40;99.90
4828;DHT22;2428;48.732;9.148;2023-04-03T12:09:27;6.40;99.90
4828;DHT22;2428;48.732;9.148;2023-04-03T12:11:56;6.30;99.90
4828;DHT22;2428;48.732;9.148;2023-04-03T12:14:23;6.20;99.90
4828;DHT22;2428;48.732;9.148;2023-04-03T12:16:53;6.10;99.90
4828;DHT22;2428;48.732;9.148;2023-04-03T12:19:36;6.10;99.90
4828;DHT22;2428;48.732;9.148;2023-04-03T12:22:07;6.10;99.90
4828;DHT22;2428;48.732;9.148;2023-04-03T12:24:36;6.10;99.90
4828;DHT22;2428;48.732;9.148;2023-04-03T12:27:20;6.20;99.90
4828;DHT22;2428;48.732;9.148;2023-04-03T12:29:58;6.20;99.90
4828;DHT22;2428;48.732;9.148;2023-04-03T12:38:01;6.10;99.90
4828;DHT22;2428;48.732;9.148;2023-04-03T12:40:49;6.10;99.90
4828;DHT22;2428;48.732;9.148;2023-04-03T12:48:28;6.20;99.90
4828;DHT22;2428;48.732;9.148;2023-04-03T12:50:56;6.30;99.90
4828;DHT22;2428;48.732;9.148;2023-04-03T12:53:25;6.20;99.90
4828;DHT22;2428;48.732;9.148;2023-04-03T12:55:55;6.20;99.90
4828;DHT22;2428;48.732;9.148;2023-04-03T13:01:22;6.10;99.90
4828;DHT22;2428;48.732;9.148;2023-04-03T13:03:51;6.10;99.90
4828;DHT22;2428;48.732;9.148;2023-04-03T13:06:21;6.10;99.90
4828;DHT22;2428;48.732;9.148;2023-04-03T13:08:52;6.30;99.90
4828;DHT22;2428;48.732;9.148;2023-04-03T13:11:19;6.30;99.90
4828;DHT22;2428;48.732;9.148;2023-04-03T13:14:00;6.40;99.90
4828;DHT22;2428;48.732;9.148;2023-04-03T13:16:27;6.50;99.90
4828;DHT22;2428;48.732;9.148;2023-04-03T13:18:54;6.60;99.90
4828;DHT22;2428;48.732;9.148;2023-04-03T13:21:26;6.70;99.90
4828;DHT22;2428;48.732;9.148;2023-04-03T13:23:56;6.80;99.90
4828;DHT22;2428;48.732;9.148;2023-04-03T13:26:25;7.00;99.90
4828;DHT22;2428;48.732;9.148;2023-04-03T13:28:52;7.10;99.90
4828;DHT22;2428;48.732;9.148;2023-04-03T13:31:35;7.10;99.90
4828;DHT22;2428;48.732;9.148;2023-04-03T13:34:20;7.10;99.90
4828;DHT22;2428;48.732;9.148;2023-04-03T13:41:50;7.00;99.90
4828;DHT22;2428;48.732;9.148;2023-04-03T13:46:55;7.00;99.90
4828;DHT22;2428;48.732;9.148;2023-04-03T13:49:33;6.90;99.90
4828;DHT22;2428;48.732;9.148;2023-04-03T13:52:00;6.90;99.90
4828;DHT22;2428;48.732;9.148;2023-04-03T13:54:33;6.90;99.90
4828;DHT22;2428;48.732;9.148;2023-04-03T13:57:01;7.00;99.90
4828;DHT22;2428;48.732;9.148;2023-04-03T13:59:31;6.90;99.90
4828;DHT22;2428;48.732;9.148;2023-04-03T14:06:56;7.10;99.90
4828;DHT22;2428;48.732;9.148;2023-04-03T14:09:24;7.20;99.90
4828;DHT22;2428;48.732;9.148;2023-04-03T14:11:53;7.20;99.90
4828;DHT22;2428;48.732;9.148;2023-04-03T14:14:22;7.10;99.90
4828;DHT22;2428;48.732;9.148;2023-04-03T14:16:58;7.10;99.90
4828;DHT22;2428;48.732;9.148;2023-04-03T14:19:34;7.10;99.90
4828;DHT22;2428;48.732;9.148;2023-04-03T14:22:17;7.10;99.90
4828;DHT22;2428;48.732;9.148;2023-04-03T14:24:44;7.10;99.90
4828;DHT22;2428;48.732;9.148;2023-04-03T14:27:22;7.10;99.90
4828;DHT22;2428;48.732;9.148;2023-04-03T14:29:49;6.90;99.90
4828;DHT22;2428;48.732;9.148;2023-04-03T14:32:17;6.90;99.90
4828;DHT22;2428;48.732;9.148;2023-04-03T14:34:43;6.90;99.90
4828;DHT22;2428;48.732;9.148;2023-04-03T14:37:15;6.80;99.90
4828;DHT22;2428;48.732;9.148;2023-04-03T14:39:42;6.70;99.90
4828;DHT22;2428;48.732;9.148;2023-04-03T14:42:16;6.60;99.90
4828;DHT22;2428;48.732;9.148;2023-04-03T14:44:42;6.60;99.90
4828;DHT22;2428;48.732;9.148;2023-04-03T14:47:14;6.50;99.90
4828;DHT22;2428;48.732;9.148;2023-04-03T14:49:41;6.60;99.90
4828;DHT22;2428;48.732;9.148;2023-04-03T14:52:18;6.80;99.90
4828;DHT22;2428;48.732;9.148;2023-04-03T14:54:44;7.10;99.90
4828;DHT22;2428;48.732;9.148;2023-04-03T14:57:12;7.40;99.90
4828;DHT22;2428;48.732;9.148;2023-04-03T14:59:39;7.70;99.90
4828;DHT22;2428;48.732;9.148;2023-04-03T15:04:46;7.70;99.90
4828;DHT22;2428;48.732;9.148;2023-04-03T15:07:12;7.50;99.90
4828;DHT22;2428;48.732;9.148;2023-04-03T15:09:37;7.30;99.90
4828;DHT22;2428;48.732;9.148;2023-04-03T15:12:03;7.20;99.90
4828;DHT22;2428;48.732;9.148;2023-04-03T15:14:28;7.10;99.90
4828;DHT22;2428;48.732;9.148;2023-04-03T15:16:54;7.10;99.90
4828;DHT22;2428;48.732;9.148;2023-04-03T15:19:19;7.00;99.90
4828;DHT22;2428;48.732;9.148;2023-04-03T15:21:45;7.00;99.90
4828;DHT22;2428;48.732;9.148;2023-04-03T15:24:11;6.90;99.90
4828;DHT22;2428;48.732;9.148;2023-04-03T15:26:37;6.80;99.90
4828;DHT22;2428;48.732;9.148;2023-04-03T15:29:04;6.90;99.90
4828;DHT22;2428;48.732;9.148;2023-04-03T15:31:29;6.80;99.90
4828;DHT22;2428;48.732;9.148;2023-04-03T15:33:55;6.80;99.90
4828;DHT22;2428;48.732;9.148;2023-04-03T15:36:20;6.80;99.90
4828;DHT22;2428;48.732;9.148;2023-04-03T15:38:46;6.80;99.90
4828;DHT22;2428;48.732;9.148;2023-04-03T15:41:12;6.90;99.90
4828;DHT22;2428;48.732;9.148;2023-04-03T15:43:38;7.00;99.90
4828;DHT22;2428;48.732;9.148;2023-04-03T15:46:03;7.00;99.90
4828;DHT22;2428;48.732;9.148;2023-04-03T15:48:29;6.90;99.90
4828;DHT22;2428;48.732;9.148;2023-04-03T15:50:55;6.90;99.90
4828;DHT22;2428;48.732;9.148;2023-04-03T15:53:20;6.70;99.90
4828;DHT22;2428;48.732;9.148;2023-04-03T15:55:46;6.50;99.90
4828;DHT22;2428;48.732;9.148;2023-04-03T15:58:12;6.40;99.90
4828;DHT22;2428;48.732;9.148;2023-04-03T16:00:38;6.30;99.90
4828;DHT22;2428;48.732;9.148;2023-04-03T16:03:08;6.20;99.90
4828;DHT22;2428;48.732;9.148;2023-04-03T16:05:35;6.30;99.90
4828;DHT22;2428;48.732;9.148;2023-04-03T16:08:02;6.40;99.90
4828;DHT22;2428;48.732;9.148;2023-04-03T16:10:29;6.50;99.90
4828;DHT22;2428;48.732;9.148;2023-04-03T16:12:55;6.70;99.90
4828;DHT22;2428;48.732;9.148;2023-04-03T16:15:21;6.80;99.90
4828;DHT22;2428;48.732;9.148;2023-04-03T16:17:47;6.90;99.90
4828;DHT22;2428;48.732;9.148;2023-04-03T16:20:14;7.00;99.90
4828;DHT22;2428;48.732;9.148;2023-04-03T16:22:40;6.90;99.90
4828;DHT22;2428;48.732;9.148;2023-04-03T16:25:06;6.90;99.90
4828;DHT22;2428;48.732;9.148;2023-04-03T16:27:32;6.70;99.90
4828;DHT22;2428;48.732;9.148;2023-04-03T16:29:58;6.70;99.90
4828;DHT22;2428;48.732;9.148;2023-04-03T16:32:26;6.70;99.90
4828;DHT22;2428;48.732;9.148;2023-04-03T16:34:52;6.70;99.90
4828;DHT22;2428;48.732;9.148;2023-04-03T16:37:18;6.50;99.90
4828;DHT22;2428;48.732;9.148;2023-04-03T16:39:44;6.40;99.90
4828;DHT22;2428;48.732;9.148;2023-04-03T16:42:10;6.20;99.90
4828;DHT22;2428;48.732;9.148;2023-04-03T16:44:36;6.20;99.90
4828;DHT22;2428;48.732;9.148;2023-04-03T16:47:02;6.00;99.90
4828;DHT22;2428;48.732;9.148;2023-04-03T16:49:28;5.90;99.90
4828;DHT22;2428;48.732;9.148;2023-04-03T16:51:58;5.90;99.90
4828;DHT22;2428;48.732;9.148;2023-04-03T16:54:24;5.90;99.90
4828;DHT22;2428;48.732;9.148;2023-04-03T16:56:49;5.90;99.90
4828;DHT22;2428;48.732;9.148;2023-04-03T16:59:15;6.00;99.90
4828;DHT22;2428;48.732;9.148;2023-04-03T17:01:41;6.00;99.90
4828;DHT22;2428;48.732;9.148;2023-04-03T17:04:06;6.00;99.90
4828;DHT22;2428;48.732;9.148;2023-04-03T17:06:32;6.00;99.90
4828;DHT22;2428;48.732;9.148;2023-04-03T17:08:58;6.00;99.90
4828;DHT22;2428;48.732;9.148;2023-04-03T17:11:23;6.10;99.90
4828;DHT22;2428;48.732;9.148;2023-04-03T17:13:50;6.10;99.90
4828;DHT22;2428;48.732;9.148;2023-04-03T17:16:16;6.10;99.90
4828;DHT22;2428;48.732;9.148;2023-04-03T17:18:42;6.10;99.90
4828;DHT22;2428;48.732;9.148;2023-04-03T17:21:08;6.10;99.90
4828;DHT22;2428;48.732;9.148;2023-04-03T17:23:35;6.10;99.90
4828;DHT22;2428;48.732;9.148;2023-04-03T17:26:02;6.10;99.90
4828;DHT22;2428;48.732;9.148;2023-04-03T17:28:28;6.10;99.90
4828;DHT22;2428;48.732;9.148;2023-04-03T17:30:58;6.00;99.90
4828;DHT22;2428;48.732;9.148;2023-04-03T17:33:24;6.00;99.90
4828;DHT22;2428;48.732;9.148;2023-04-03T17:35:50;6.00;99.90
4828;DHT22;2428;48.732;9.148;2023-04-03T17:38:16;6.00;99.90
4828;DHT22;2428;48.732;9.148;2023-04-03T17:40:42;5.90;99.90
4828;DHT22;2428;48.732;9.148;2023-04-03T17:43:09;5.80;99.90
4828;DHT22;2428;48.732;9.148;2023-04-03T17:45:35;5.80;99.90
4828;DHT22;2428;48.732;9.148;2023-04-03T17:48:01;5.80;99.90
4828;DHT22;2428;48.732;9.148;2023-04-03T17:50:27;5.70;99.90
4828;DHT22;2428;48.732;9.148;2023-04-03T17:52:53;5.70;99.90
4828;DHT22;2428;48.732;9.148;2023-04-03T17:55:18;5.60;99.90
4828;DHT22;2428;48.732;9.148;2023-04-03T17:57:44;5.60;99.90
4828;DHT22;2428;48.732;9.148;2023-04-03T18:00:10;5.60;99.90
4828;DHT22;2428;48.732;9.148;2023-04-03T18:02:36;5.60;99.90
4828;DHT22;2428;48.732;9.148;2023-04-03T18:05:02;5.60;99.90